sensor_id;sensor_type;location;lat;lon;timestamp;P1;durP1;ratioP1;P2;durP2;ratioP2
35394;SDS011;21500;45.308;9.488;2022-10-30T07:10:05;15.38;;;13.85;;
35394;SDS011;21500;45.308;9.488;2022-10-30T08:06:57;11.07;;;8.82;;
35394;SDS011;21500;45.308;9.488;2022-10-30T08:09:41;12.40;;;8.05;;
35394;SDS011;21500;45.308;9.488;2022-10-30T08:12:14;12.35;;;9.30;;
35394;SDS011;21500;45.308;9.488;2022-10-30T08:14:43;12.43;;;9.13;;
35394;SDS011;21500;45.308;9.488;2022-10-30T08:17:25;15.55;;;11.05;;
35394;SDS011;21500;45.308;9.488;2022-10-30T08:19:56;16.95;;;10.43;;
35394;SDS011;21500;45.308;9.488;2022-10-30T08:22:28;11.70;;;10.15;;
35394;SDS011;21500;45.308;9.488;2022-10-30T08:25:26;14.68;;;9.20;;
35394;SDS011;21500;45.308;9.488;2022-10-30T08:28:00;11.85;;;9.35;;
35394;SDS011;21500;45.308;9.488;2022-10-30T08:30:34;10.60;;;9.13;;
35394;SDS011;21500;45.308;9.488;2022-10-30T08:33:05;12.18;;;8.80;;
35394;SDS011;21500;45.308;9.488;2022-10-30T08:38:16;15.40;;;8.68;;
35394;SDS011;21500;45.308;9.488;2022-10-30T08:40:50;14.10;;;8.85;;
35394;SDS011;21500;45.308;9.488;2022-10-30T08:46:10;10.32;;;7.93;;
35394;SDS011;21500;45.308;9.488;2022-10-30T08:48:59;11.93;;;8.50;;
35394;SDS011;21500;45.308;9.488;2022-10-30T08:51:58;13.10;;;8.48;;
35394;SDS011;21500;45.308;9.488;2022-10-30T08:54:29;13.00;;;9.00;;
35394;SDS011;21500;45.308;9.488;2022-10-30T08:57:07;10.30;;;7.88;;
35394;SDS011;21500;45.308;9.488;2022-10-30T08:59:41;12.75;;;8.25;;
35394;SDS011;21500;45.308;9.488;2022-10-30T09:02:58;14.10;;;8.07;;
35394;SDS011;21500;45.308;9.488;2022-10-30T09:05:57;10.65;;;7.75;;
35394;SDS011;21500;45.308;9.488;2022-10-30T09:09:29;11.70;;;8.60;;
35394;SDS011;21500;45.308;9.488;2022-10-30T09:15:45;10.02;;;7.80;;
35394;SDS011;21500;45.308;9.488;2022-10-30T09:18:13;10.68;;;6.65;;
35394;SDS011;21500;45.308;9.488;2022-10-30T09:20:39;13.38;;;7.07;;
35394;SDS011;21500;45.308;9.488;2022-10-30T09:23:05;8.60;;;7.22;;
35394;SDS011;21500;45.308;9.488;2022-10-30T09:25:34;12.10;;;7.25;;
35394;SDS011;21500;45.308;9.488;2022-10-30T09:28:15;8.68;;;6.75;;
35394;SDS011;21500;45.308;9.488;2022-10-30T09:31:09;10.32;;;7.43;;
35394;SDS011;21500;45.308;9.488;2022-10-30T09:33:39;11.32;;;7.20;;
35394;SDS011;21500;45.308;9.488;2022-10-30T09:36:39;10.52;;;7.13;;
35394;SDS011;21500;45.308;9.488;2022-10-30T09:39:12;13.82;;;7.90;;
35394;SDS011;21500;45.308;9.488;2022-10-30T09:51:09;19.83;;;6.88;;
35394;SDS011;21500;45.308;9.488;2022-10-30T10:05:50;9.73;;;6.90;;
35394;SDS011;21500;45.308;9.488;2022-10-30T10:08:49;10.75;;;7.05;;
35394;SDS011;21500;45.308;9.488;2022-10-30T10:11:59;10.55;;;6.20;;
35394;SDS011;21500;45.308;9.488;2022-10-30T10:14:38;22.83;;;6.45;;
35394;SDS011;21500;45.308;9.488;2022-10-30T10:17:13;14.85;;;7.28;;
35394;SDS011;21500;45.308;9.488;2022-10-30T10:19:53;14.02;;;6.00;;
35394;SDS011;21500;45.308;9.488;2022-10-30T10:22:37;12.90;;;6.72;;
35394;SDS011;21500;45.308;9.488;2022-10-30T10:25:08;9.35;;;6.32;;
35394;SDS011;21500;45.308;9.488;2022-10-30T10:27:55;9.20;;;5.50;;
35394;SDS011;21500;45.308;9.488;2022-10-30T10:33:25;10.30;;;6.05;;
35394;SDS011;21500;45.308;9.488;2022-10-30T10:36:13;15.45;;;6.95;;
35394;SDS011;21500;45.308;9.488;2022-10-30T10:39:00;13.05;;;6.40;;
35394;SDS011;21500;45.308;9.488;2022-10-30T10:44:49;18.05;;;6.80;;
35394;SDS011;21500;45.308;9.488;2022-10-30T10:47:47;11.20;;;6.72;;
35394;SDS011;21500;45.308;9.488;2022-10-30T10:52:55;14.80;;;5.82;;
35394;SDS011;21500;45.308;9.488;2022-10-30T10:55:30;8.50;;;5.72;;
35394;SDS011;21500;45.308;9.488;2022-10-30T10:58:12;10.95;;;6.80;;
35394;SDS011;21500;45.308;9.488;2022-10-30T11:00:50;17.58;;;5.95;;
35394;SDS011;21500;45.308;9.488;2022-10-30T11:03:20;12.65;;;7.97;;
35394;SDS011;21500;45.308;9.488;2022-10-30T11:49:35;9.07;;;4.63;;
35394;SDS011;21500;45.308;9.488;2022-10-30T14:35:28;15.15;;;4.72;;
35394;SDS011;21500;45.308;9.488;2022-10-30T15:58:25;17.70;;;7.43;;
35394;SDS011;21500;45.308;9.488;2022-10-30T16:01:21;21.80;;;7.45;;
35394;SDS011;21500;45.308;9.488;2022-10-30T16:04:18;15.70;;;8.00;;
35394;SDS011;21500;45.308;9.488;2022-10-30T16:09:27;29.13;;;8.38;;
35394;SDS011;21500;45.308;9.488;2022-10-30T16:11:55;19.45;;;8.20;;
35394;SDS011;21500;45.308;9.488;2022-10-30T16:14:24;15.93;;;7.75;;
35394;SDS011;21500;45.308;9.488;2022-10-30T16:16:52;18.63;;;7.80;;
35394;SDS011;21500;45.308;9.488;2022-10-30T16:19:28;15.43;;;7.57;;
35394;SDS011;21500;45.308;9.488;2022-10-30T16:21:55;19.98;;;7.68;;
35394;SDS011;21500;45.308;9.488;2022-10-30T16:24:24;18.48;;;7.90;;
35394;SDS011;21500;45.308;9.488;2022-10-30T16:27:02;18.55;;;7.40;;
35394;SDS011;21500;45.308;9.488;2022-10-30T16:29:30;15.60;;;8.68;;
35394;SDS011;21500;45.308;9.488;2022-10-30T16:31:57;19.23;;;9.45;;
35394;SDS011;21500;45.308;9.488;2022-10-30T16:34:29;18.65;;;7.80;;
35394;SDS011;21500;45.308;9.488;2022-10-30T16:36:58;16.13;;;7.53;;
35394;SDS011;21500;45.308;9.488;2022-10-30T16:39:27;18.60;;;7.70;;
35394;SDS011;21500;45.308;9.488;2022-10-30T16:41:55;17.83;;;8.13;;
35394;SDS011;21500;45.308;9.488;2022-10-30T16:44:29;21.23;;;9.10;;
35394;SDS011;21500;45.308;9.488;2022-10-30T16:47:05;17.73;;;9.40;;
35394;SDS011;21500;45.308;9.488;2022-10-30T16:49:48;21.42;;;9.57;;
35394;SDS011;21500;45.308;9.488;2022-10-30T16:52:43;25.08;;;9.82;;
35394;SDS011;21500;45.308;9.488;2022-10-30T16:55:17;15.77;;;8.48;;
35394;SDS011;21500;45.308;9.488;2022-10-30T16:57:46;17.35;;;9.70;;
35394;SDS011;21500;45.308;9.488;2022-10-30T17:02:47;21.80;;;10.30;;
35394;SDS011;21500;45.308;9.488;2022-10-30T17:05:25;20.67;;;8.38;;
35394;SDS011;21500;45.308;9.488;2022-10-30T17:16:22;15.85;;;9.27;;
35394;SDS011;21500;45.308;9.488;2022-10-30T17:18:59;20.02;;;11.73;;
35394;SDS011;21500;45.308;9.488;2022-10-30T17:21:43;19.88;;;11.18;;
35394;SDS011;21500;45.308;9.488;2022-10-30T17:24:19;17.85;;;10.05;;
35394;SDS011;21500;45.308;9.488;2022-10-30T17:26:57;20.58;;;10.23;;
35394;SDS011;21500;45.308;9.488;2022-10-30T17:32:14;22.20;;;10.75;;
35394;SDS011;21500;45.308;9.488;2022-10-30T17:34:44;19.70;;;10.75;;
35394;SDS011;21500;45.308;9.488;2022-10-30T17:37:10;16.85;;;10.90;;
35394;SDS011;21500;45.308;9.488;2022-10-30T17:39:36;17.70;;;10.73;;
35394;SDS011;21500;45.308;9.488;2022-10-30T17:42:02;21.38;;;10.63;;
35394;SDS011;21500;45.308;9.488;2022-10-30T17:44:29;27.05;;;11.95;;
35394;SDS011;21500;45.308;9.488;2022-10-30T17:47:07;22.02;;;11.90;;
35394;SDS011;21500;45.308;9.488;2022-10-30T17:49:41;18.65;;;10.13;;
35394;SDS011;21500;45.308;9.488;2022-10-30T17:52:10;19.48;;;12.07;;
35394;SDS011;21500;45.308;9.488;2022-10-30T17:54:37;19.27;;;12.77;;
35394;SDS011;21500;45.308;9.488;2022-10-30T17:57:03;18.83;;;13.05;;
35394;SDS011;21500;45.308;9.488;2022-10-30T17:59:46;20.75;;;10.82;;
35394;SDS011;21500;45.308;9.488;2022-10-30T18:02:27;19.67;;;10.68;;
35394;SDS011;21500;45.308;9.488;2022-10-30T20:06:24;23.63;;;15.15;;
35394;SDS011;21500;45.308;9.488;2022-10-30T20:25:31;24.70;;;16.13;;
35394;SDS011;21500;45.308;9.488;2022-10-30T20:30:39;23.08;;;13.10;;
35394;SDS011;21500;45.308;9.488;2022-10-30T20:33:07;24.27;;;13.75;;
35394;SDS011;21500;45.308;9.488;2022-10-30T20:35:36;20.85;;;14.55;;
35394;SDS011;21500;45.308;9.488;2022-10-30T20:38:08;25.27;;;14.00;;
35394;SDS011;21500;45.308;9.488;2022-10-30T20:40:46;23.83;;;13.73;;
35394;SDS011;21500;45.308;9.488;2022-10-30T20:43:17;19.80;;;13.68;;
35394;SDS011;21500;45.308;9.488;2022-10-30T20:45:45;20.40;;;13.63;;
35394;SDS011;21500;45.308;9.488;2022-10-30T20:48:12;22.30;;;14.88;;
35394;SDS011;21500;45.308;9.488;2022-10-30T20:53:12;19.88;;;13.10;;
35394;SDS011;21500;45.308;9.488;2022-10-30T20:55:40;26.02;;;15.98;;
35394;SDS011;21500;45.308;9.488;2022-10-30T20:58:06;23.08;;;14.13;;
35394;SDS011;21500;45.308;9.488;2022-10-30T21:00:32;30.38;;;17.00;;
35394;SDS011;21500;45.308;9.488;2022-10-30T21:03:02;25.73;;;14.25;;
35394;SDS011;21500;45.308;9.488;2022-10-30T21:05:32;23.90;;;14.40;;
35394;SDS011;21500;45.308;9.488;2022-10-30T21:08:01;23.23;;;15.32;;
35394;SDS011;21500;45.308;9.488;2022-10-30T21:10:30;44.40;;;16.58;;
35394;SDS011;21500;45.308;9.488;2022-10-30T21:13:05;25.92;;;14.10;;
35394;SDS011;21500;45.308;9.488;2022-10-30T21:15:46;21.67;;;13.68;;
35394;SDS011;21500;45.308;9.488;2022-10-30T21:18:13;24.00;;;16.08;;
35394;SDS011;21500;45.308;9.488;2022-10-30T21:21:18;29.05;;;17.48;;
35394;SDS011;21500;45.308;9.488;2022-10-30T21:23:55;27.63;;;17.40;;
35394;SDS011;21500;45.308;9.488;2022-10-30T21:26:22;27.13;;;17.40;;
35394;SDS011;21500;45.308;9.488;2022-10-30T21:32:06;31.65;;;19.48;;
35394;SDS011;21500;45.308;9.488;2022-10-30T21:34:39;29.38;;;20.35;;
35394;SDS011;21500;45.308;9.488;2022-10-30T21:39:54;30.17;;;21.05;;
35394;SDS011;21500;45.308;9.488;2022-10-30T21:44:59;26.00;;;19.08;;
35394;SDS011;21500;45.308;9.488;2022-10-30T22:00:03;29.75;;;19.92;;
35394;SDS011;21500;45.308;9.488;2022-10-30T22:02:36;31.10;;;20.00;;
35394;SDS011;21500;45.308;9.488;2022-10-30T22:05:12;34.38;;;20.92;;
35394;SDS011;21500;45.308;9.488;2022-10-30T22:08:01;26.45;;;18.27;;
35394;SDS011;21500;45.308;9.488;2022-10-30T22:10:32;36.00;;;20.33;;
35394;SDS011;21500;45.308;9.488;2022-10-30T22:12:58;24.80;;;18.00;;
35394;SDS011;21500;45.308;9.488;2022-10-30T22:15:23;30.90;;;19.95;;
35394;SDS011;21500;45.308;9.488;2022-10-30T22:17:50;27.00;;;18.58;;
35394;SDS011;21500;45.308;9.488;2022-10-30T22:20:16;29.17;;;19.42;;
35394;SDS011;21500;45.308;9.488;2022-10-30T22:22:42;29.45;;;19.05;;
35394;SDS011;21500;45.308;9.488;2022-10-30T22:25:08;28.70;;;19.67;;
35394;SDS011;21500;45.308;9.488;2022-10-30T22:27:38;26.95;;;19.45;;
35394;SDS011;21500;45.308;9.488;2022-10-30T22:30:16;39.53;;;23.73;;
35394;SDS011;21500;45.308;9.488;2022-10-30T22:32:51;32.05;;;21.15;;
35394;SDS011;21500;45.308;9.488;2022-10-30T22:35:17;36.25;;;22.90;;
35394;SDS011;21500;45.308;9.488;2022-10-30T22:37:43;34.55;;;21.92;;
35394;SDS011;21500;45.308;9.488;2022-10-30T22:40:13;34.35;;;22.60;;
35394;SDS011;21500;45.308;9.488;2022-10-30T22:42:59;34.75;;;23.50;;
35394;SDS011;21500;45.308;9.488;2022-10-30T22:45:43;29.95;;;20.77;;
35394;SDS011;21500;45.308;9.488;2022-10-30T22:48:23;40.88;;;23.38;;
35394;SDS011;21500;45.308;9.488;2022-10-30T22:51:05;36.80;;;23.80;;
35394;SDS011;21500;45.308;9.488;2022-10-30T22:53:40;32.00;;;22.33;;
35394;SDS011;21500;45.308;9.488;2022-10-30T22:56:18;43.80;;;24.27;;
35394;SDS011;21500;45.308;9.488;2022-10-30T22:58:54;40.38;;;25.42;;
35394;SDS011;21500;45.308;9.488;2022-10-30T23:01:57;39.38;;;23.73;;
35394;SDS011;21500;45.308;9.488;2022-10-30T23:04:55;32.05;;;23.20;;
35394;SDS011;21500;45.308;9.488;2022-10-30T23:07:29;38.90;;;24.38;;
35394;SDS011;21500;45.308;9.488;2022-10-30T23:10:10;41.55;;;24.67;;
35394;SDS011;21500;45.308;9.488;2022-10-30T23:12:44;35.53;;;24.20;;
35394;SDS011;21500;45.308;9.488;2022-10-30T23:15:25;43.97;;;24.75;;
35394;SDS011;21500;45.308;9.488;2022-10-30T23:18:25;33.88;;;24.23;;
35394;SDS011;21500;45.308;9.488;2022-10-30T23:21:02;38.17;;;24.17;;
35394;SDS011;21500;45.308;9.488;2022-10-30T23:23:35;38.00;;;22.70;;
35394;SDS011;21500;45.308;9.488;2022-10-30T23:26:21;35.53;;;23.13;;
35394;SDS011;21500;45.308;9.488;2022-10-30T23:28:57;40.35;;;22.25;;
35394;SDS011;21500;45.308;9.488;2022-10-30T23:34:04;33.20;;;22.08;;
35394;SDS011;21500;45.308;9.488;2022-10-30T23:36:42;32.50;;;21.02;;
35394;SDS011;21500;45.308;9.488;2022-10-30T23:39:19;29.70;;;22.15;;
35394;SDS011;21500;45.308;9.488;2022-10-30T23:41:54;37.50;;;22.77;;
35394;SDS011;21500;45.308;9.488;2022-10-30T23:44:31;28.75;;;21.02;;
35394;SDS011;21500;45.308;9.488;2022-10-30T23:46:57;37.13;;;23.13;;
35394;SDS011;21500;45.308;9.488;2022-10-30T23:49:26;31.58;;;20.83;;
35394;SDS011;21500;45.308;9.488;2022-10-30T23:51:58;32.45;;;20.17;;
35394;SDS011;21500;45.308;9.488;2022-10-30T23:54:36;30.75;;;21.60;;
35394;SDS011;21500;45.308;9.488;2022-10-30T23:57:24;34.42;;;22.63;;
35394;SDS011;21500;45.308;9.488;2022-10-30T23:59:52;37.25;;;23.33;;
